createdAt,value
2018-10-18T00:02:22.320Z,30
2018-10-18T00:07:24.758Z,28
2018-10-18T00:12:27.202Z,33
2018-10-18T00:17:29.628Z,30
2018-10-18T00:22:32.070Z,28
2018-10-18T00:27:34.507Z,28
2018-10-18T00:32:36.949Z,30
2018-10-18T00:37:39.400Z,28
2018-10-18T00:42:41.863Z,30
2018-10-18T00:47:44.270Z,28
2018-10-18T00:52:46.775Z,34
2018-10-18T00:57:49.146Z,31
2018-10-18T01:02:51.600Z,30
2018-10-18T01:07:54.078Z,35
2018-10-18T01:12:56.492Z,36
2018-10-18T01:17:58.915Z,42
2018-10-18T01:23:01.359Z,37
2018-10-18T01:28:03.793Z,38
2018-10-18T01:33:06.227Z,36
2018-10-18T01:38:08.731Z,33
2018-10-18T01:43:11.105Z,33
2018-10-18T01:48:13.726Z,35
2018-10-18T01:53:16.065Z,38
2018-10-18T01:58:18.424Z,32
2018-10-18T02:03:20.865Z,32
2018-10-18T02:08:23.322Z,28
2018-10-18T02:13:25.808Z,29
2018-10-18T02:18:28.199Z,34
2018-10-18T02:23:30.686Z,28
2018-10-18T02:28:33.075Z,34
2018-10-18T02:33:35.510Z,34
2018-10-18T02:38:37.964Z,32
2018-10-18T02:43:40.387Z,33
2018-10-18T02:48:42.853Z,35
2018-10-18T02:53:45.289Z,31
2018-10-18T02:58:47.710Z,29
2018-10-18T03:03:50.152Z,30
2018-10-18T03:08:57.601Z,30
2018-10-18T03:13:55.036Z,31
2018-10-18T03:18:57.495Z,26
2018-10-18T03:23:59.931Z,29
2018-10-18T03:29:02.365Z,33
2018-10-18T03:34:04.817Z,35
2018-10-18T03:39:07.266Z,35
2018-10-18T03:44:09.690Z,36
2018-10-18T03:49:12.119Z,45
2018-10-18T03:54:14.688Z,44
2018-10-18T03:59:17.250Z,36
2018-10-18T04:04:19.494Z,39
2018-10-18T04:09:26.879Z,178
2018-10-18T04:14:24.398Z,32
2018-10-18T04:19:26.771Z,36
2018-10-18T04:24:29.264Z,40
2018-10-18T04:34:39.092Z,35
2018-10-18T04:39:36.583Z,39
2018-10-18T04:44:38.977Z,35
2018-10-18T04:49:41.414Z,38
2018-10-18T04:54:43.868Z,40
2018-10-18T05:04:48.732Z,33
2018-10-18T05:09:51.159Z,33
2018-10-18T05:14:53.597Z,32
2018-10-18T05:19:56.039Z,48
2018-10-18T05:24:58.541Z,40
2018-10-18T05:30:00.944Z,67
2018-10-18T05:35:03.393Z,67
2018-10-18T05:40:05.809Z,66
2018-10-18T05:45:08.249Z,101
2018-10-18T05:50:10.697Z,72
2018-10-18T05:55:13.238Z,73
2018-10-18T06:00:15.622Z,83
2018-10-18T06:05:18.036Z,54
2018-10-18T06:10:20.592Z,45
2018-10-18T06:15:22.899Z,53
2018-10-18T06:20:25.355Z,50
2018-10-18T06:25:27.780Z,40
2018-10-18T06:30:30.219Z,47
2018-10-18T06:35:32.688Z,46
2018-10-18T06:40:35.096Z,45
2018-10-18T06:45:37.545Z,47
2018-10-18T06:50:40.079Z,45
2018-10-18T06:55:42.420Z,43
2018-10-18T07:00:44.889Z,52
2018-10-18T07:05:47.307Z,50
2018-10-18T07:10:49.796Z,49
2018-10-18T07:15:52.178Z,47
2018-10-18T07:20:54.643Z,46
2018-10-18T07:25:57.157Z,42
2018-10-18T07:30:59.503Z,47
2018-10-18T07:36:02.072Z,44
2018-10-18T07:41:04.393Z,53
2018-10-18T07:46:06.827Z,44
2018-10-18T07:51:09.585Z,43
2018-10-18T08:01:14.192Z,48
2018-10-18T08:06:16.609Z,46
2018-10-18T08:11:19.059Z,51
2018-10-18T08:16:21.468Z,43
2018-10-18T08:21:23.914Z,48
2018-10-18T08:26:26.369Z,46
2018-10-18T08:31:28.971Z,40
2018-10-18T08:36:31.433Z,46
2018-10-18T08:41:33.674Z,44
2018-10-18T08:46:36.122Z,52
2018-10-18T08:51:38.620Z,54
2018-10-18T08:56:40.994Z,51
2018-10-18T09:01:43.515Z,56
2018-10-18T09:06:45.876Z,51
2018-10-18T09:11:48.306Z,56
2018-10-18T09:16:50.761Z,56
2018-10-18T09:21:53.204Z,57
2018-10-18T09:26:55.639Z,74
2018-10-18T09:31:58.104Z,83
2018-10-18T09:37:00.536Z,88
2018-10-18T09:42:02.960Z,77
2018-10-18T09:47:05.402Z,80
2018-10-18T09:52:07.873Z,76
2018-10-18T09:57:10.279Z,71
2018-10-18T10:02:12.736Z,71
2018-10-18T10:07:15.278Z,69
2018-10-18T10:12:17.605Z,66
2018-10-18T10:17:20.102Z,67
2018-10-18T10:22:22.478Z,66
2018-10-18T10:27:24.931Z,64
2018-10-18T10:32:27.370Z,60
2018-10-18T10:37:29.819Z,57
2018-10-18T10:42:32.309Z,59
2018-10-18T10:47:34.675Z,62
2018-10-18T10:52:37.143Z,59
2018-10-18T10:57:39.570Z,55
2018-10-18T11:02:42.022Z,49
2018-10-18T11:07:44.479Z,50
2018-10-18T11:12:47.195Z,55
2018-10-18T11:17:49.328Z,49
2018-10-18T11:22:51.824Z,44
2018-10-18T11:27:54.213Z,45
2018-10-18T11:32:56.729Z,51
2018-10-18T11:37:59.140Z,54
2018-10-18T11:43:01.625Z,52
2018-10-18T11:48:04.012Z,52
2018-10-18T11:53:06.407Z,51
2018-10-18T11:58:08.878Z,51
2018-10-18T12:03:11.298Z,51
2018-10-18T12:08:13.949Z,52
2018-10-18T12:13:16.278Z,50
2018-10-18T12:18:18.624Z,53
2018-10-18T12:23:21.065Z,55
2018-10-18T12:28:23.546Z,51
2018-10-18T12:33:25.938Z,50
2018-10-18T12:38:28.669Z,54
2018-10-18T12:43:30.832Z,53
2018-10-18T12:48:33.311Z,54
2018-10-18T12:53:35.742Z,51
2018-10-18T12:58:38.166Z,50
2018-10-18T13:03:40.604Z,49
2018-10-18T13:08:43.081Z,52
2018-10-18T13:13:45.486Z,51
2018-10-18T13:18:47.976Z,52
2018-10-18T13:23:50.375Z,49
2018-10-18T13:28:52.807Z,51
2018-10-18T13:33:55.259Z,50
2018-10-18T13:38:57.698Z,53
2018-10-18T13:44:00.162Z,55
2018-10-18T13:49:02.565Z,58
2018-10-18T13:54:05.152Z,58
2018-10-18T13:59:07.576Z,65
2018-10-18T14:04:09.899Z,69
2018-10-18T14:09:12.327Z,77
2018-10-18T14:14:14.874Z,72
2018-10-18T14:19:17.243Z,79
2018-10-18T14:24:19.684Z,75
2018-10-18T14:29:22.087Z,80
2018-10-18T14:34:24.550Z,81
2018-10-18T14:39:27.110Z,78
2018-10-18T14:44:29.633Z,78
2018-10-18T14:49:31.903Z,81
2018-10-18T14:54:34.328Z,94
2018-10-18T14:59:36.735Z,93
2018-10-18T15:04:39.255Z,96
2018-10-18T15:09:41.631Z,97
2018-10-18T15:14:44.063Z,100
2018-10-18T15:19:46.506Z,105
2018-10-18T15:24:48.949Z,107
2018-10-18T15:29:51.480Z,108
2018-10-18T15:34:53.879Z,124
2018-10-18T15:39:56.263Z,130
2018-10-18T15:44:58.737Z,121
2018-10-18T15:50:01.162Z,132
2018-10-18T15:55:03.583Z,141
2018-10-18T16:00:06.168Z,142
2018-10-18T16:05:08.553Z,151
2018-10-18T16:10:10.933Z,151
2018-10-18T16:15:13.357Z,150
2018-10-18T16:20:15.874Z,147
2018-10-18T16:25:18.219Z,148
2018-10-18T16:30:20.696Z,144
2018-10-18T16:35:23.112Z,133
2018-10-18T16:40:25.582Z,128
2018-10-18T16:45:27.986Z,138
2018-10-18T16:50:30.452Z,132
2018-10-18T16:55:32.866Z,136
2018-10-18T17:00:35.313Z,136
2018-10-18T17:05:37.754Z,129
2018-10-18T17:10:40.204Z,132
2018-10-18T17:15:42.624Z,139
2018-10-18T17:20:45.460Z,143
2018-10-18T17:25:47.553Z,155
2018-10-18T17:30:50.016Z,163
2018-10-18T17:35:52.404Z,189
2018-10-18T17:40:54.832Z,211
2018-10-18T17:45:57.329Z,180
2018-10-18T17:50:59.718Z,205
2018-10-18T17:56:02.241Z,218
2018-10-18T18:01:04.604Z,203
2018-10-18T18:06:07.077Z,207
2018-10-18T18:11:09.477Z,191
2018-10-18T18:16:11.988Z,188
2018-10-18T18:21:14.477Z,175
2018-10-18T18:26:16.831Z,180
2018-10-18T18:31:19.246Z,170
2018-10-18T18:36:21.720Z,184
2018-10-18T18:41:24.122Z,214
2018-10-18T18:46:26.559Z,172
2018-10-18T18:51:29.047Z,170
2018-10-18T18:56:31.436Z,141
2018-10-18T19:01:33.885Z,200
2018-10-18T19:06:36.326Z,148
2018-10-18T19:11:38.768Z,144
2018-10-18T19:16:41.190Z,139
2018-10-18T19:21:43.647Z,128
2018-10-18T19:26:46.105Z,168
2018-10-18T19:31:48.535Z,126
2018-10-18T19:36:50.955Z,116
2018-10-18T19:41:53.414Z,135
2018-10-18T19:46:55.865Z,121
2018-10-18T19:51:58.318Z,107
2018-10-18T19:57:00.836Z,134
2018-10-18T20:02:03.203Z,161
2018-10-18T20:07:05.616Z,149
2018-10-18T20:12:08.112Z,131
2018-10-18T20:17:10.495Z,146
2018-10-18T20:22:12.919Z,119
2018-10-18T20:27:15.374Z,120
2018-10-18T20:32:17.845Z,120
2018-10-18T20:37:20.236Z,131
2018-10-18T20:42:22.710Z,129
2018-10-18T20:47:25.361Z,142
2018-10-18T20:52:27.616Z,129
2018-10-18T20:57:30.043Z,102
2018-10-18T21:02:32.439Z,101
2018-10-18T21:07:34.896Z,189
2018-10-18T21:12:37.339Z,122
2018-10-18T21:17:39.759Z,150
2018-10-18T21:22:42.211Z,212
2018-10-18T21:27:44.700Z,222
2018-10-18T21:32:47.087Z,130
2018-10-18T21:37:49.516Z,148
2018-10-18T21:42:51.964Z,192
2018-10-18T21:47:54.413Z,168
2018-10-18T21:52:57.006Z,141
2018-10-18T21:57:59.279Z,181
2018-10-18T22:03:01.890Z,122
2018-10-18T22:08:04.174Z,181
2018-10-18T22:13:06.603Z,105
2018-10-18T22:18:09.099Z,130
2018-10-18T22:23:11.527Z,111
2018-10-18T22:28:13.974Z,145
2018-10-18T22:33:16.444Z,88
2018-10-18T22:38:18.819Z,120
2018-10-18T22:43:21.281Z,113
2018-10-18T22:48:23.685Z,103
2018-10-18T22:53:26.141Z,88
2018-10-18T22:58:28.606Z,79
2018-10-18T23:03:31.007Z,81
2018-10-18T23:08:33.554Z,95
2018-10-18T23:13:35.895Z,83
2018-10-18T23:18:38.335Z,61
2018-10-18T23:23:40.773Z,61
2018-10-18T23:28:43.210Z,56
2018-10-18T23:33:45.777Z,66
2018-10-18T23:38:48.098Z,56
2018-10-18T23:43:50.543Z,56
2018-10-18T23:48:52.958Z,54
2018-10-18T23:53:55.442Z,51
2018-10-18T23:58:57.948Z,46
